This is the latest recevied weather packets stored in our database for station/object KR4KUV. If no packets are shown the sender has not sent any weather packets the latest 10 day(s).
| Time | Temp. | Humidity | Pressure | Rain* | Wind** | Luminosity | Snow |
|---|---|---|---|---|---|---|---|
| 1787768121 | 30° C | 67% | 1018.9 hPa | 0 mm | - | 226 W/m² | - |
| 1787767816 | 29.44° C | 72% | 1018.7 hPa | 0 mm | - | 301 W/m² | - |
| 1787767512 | 29.44° C | 70% | 1019 hPa | 0 mm | - | 250 W/m² | - |
| 1787767210 | 29.44° C | 71% | 1019.3 hPa | 0 mm | - | 181 W/m² | - |
| 1787766909 | 29.44° C | 70% | 1019 hPa | 0 mm | - | 251 W/m² | - |
| 1787766604 | 28.89° C | 72% | 1019 hPa | 0 mm | - | 262 W/m² | - |
| 1787766303 | 28.89° C | 72% | 1019.1 hPa | 0 mm | - | 184 W/m² | - |
| 1787765997 | 29.44° C | 73% | 1019.1 hPa | 0 mm | - | 129 W/m² | - |
| 1787765694 | 29.44° C | 71% | 1019.1 hPa | 0 mm | - | 162 W/m² | - |
| 1787765390 | 30.56° C | 68% | 1019.3 hPa | 0 mm | - | 159 W/m² | - |
| 1787765089 | 31.11° C | 66% | 1019.7 hPa | 0 mm | - | 540 W/m² | - |
| 1787764783 | 30.56° C | 68% | 1019.6 hPa | 0 mm | - | 788 W/m² | - |
| 1787764479 | 30° C | 69% | 1019.6 hPa | 0 mm | - | 811 W/m² | - |
| 1787764175 | 29.44° C | 70% | 1019.8 hPa | 0 mm | - | 213 W/m² | - |
| 1787763870 | 30.56° C | 70% | 1019.8 hPa | 0 mm | - | 697 W/m² | - |
| 1787763564 | 30° C | 69% | 1019.9 hPa | 0 mm | - | 747 W/m² | - |
| 1787763255 | 30° C | 71% | 1019.8 hPa | 0 mm | - | 740 W/m² | - |
| 1787762955 | 29.44° C | 70% | 1020.1 hPa | 0 mm | - | 451 W/m² | - |
| 1787762655 | 29.44° C | 72% | 1019.8 hPa | 0 mm | - | 718 W/m² | - |
| 1787762352 | 28.89° C | 73% | 1020.1 hPa | 0 mm | - | 724 W/m² | - |
| 1787762051 | 28.33° C | 73% | 1020 hPa | 0 mm | - | 230 W/m² | - |
| 1787761746 | 28.89° C | 71% | 1020.3 hPa | 0 mm | - | 176 W/m² | - |
| 1787761441 | 29.44° C | 72% | 1020.3 hPa | 0 mm | - | 682 W/m² | - |
| 1787761136 | 28.89° C | 75% | 1020.3 hPa | 0 mm | - | 646 W/m² | - |
| 1787760835 | 28.33° C | 75% | 1020.3 hPa | 0 mm | - | 655 W/m² | - |
* Rain latest hour (hover to see other rain measurements)
** Current wind speed in m/s (hover to see current wind gust speed)